Camarillo, California
Current Conditions -  °F | °C
As of 7:55 PM on Friday 24 Oct 2014 (Local Time) from KCMA Reporting Station
Clear Clear  
Wind Chill: 66°   Ceiling: Unl
Heat Index: 66°   Visibility: 10mi
Dew Point: 61°   Wind: 0mph
Humidity: 84%   Direction: NA
Pressure: 29.95"   Gusts: NA
Location:  34.22°N, 119.05°W
Report Text: KCMA 250255Z 00000KT 10SM CLR 19/16 A2995 RMK AO2 SLP151 T01890161 53010
Loading
Personal Weather Stations






























Interactive Weather Map
Tropical Storm Tracking
New forecast layout! Learn more

10-Day Weather Forecast

Advertisements
Track Severe Weather on mobile